sensor_id;sensor_type;location;lat;lon;timestamp;temperature;humidity
4518;DHT22;2271;49.464;11.070;2022-07-06T00:01:01;22.60;90.40
4518;DHT22;2271;49.464;11.070;2022-07-06T00:03:26;22.50;90.70
4518;DHT22;2271;49.464;11.070;2022-07-06T00:05:52;22.50;90.70
4518;DHT22;2271;49.464;11.070;2022-07-06T00:08:17;22.50;91.00
4518;DHT22;2271;49.464;11.070;2022-07-06T00:10:43;22.50;91.00
4518;DHT22;2271;49.464;11.070;2022-07-06T00:13:09;22.50;91.10
4518;DHT22;2271;49.464;11.070;2022-07-06T00:15:34;22.50;90.80
4518;DHT22;2271;49.464;11.070;2022-07-06T00:18:00;22.40;91.00
4518;DHT22;2271;49.464;11.070;2022-07-06T00:20:26;22.40;91.00
4518;DHT22;2271;49.464;11.070;2022-07-06T00:22:51;22.30;91.30
4518;DHT22;2271;49.464;11.070;2022-07-06T00:25:17;22.30;91.20
4518;DHT22;2271;49.464;11.070;2022-07-06T00:27:43;22.20;91.40
4518;DHT22;2271;49.464;11.070;2022-07-06T00:30:08;22.20;91.30
4518;DHT22;2271;49.464;11.070;2022-07-06T00:32:34;22.20;91.50
4518;DHT22;2271;49.464;11.070;2022-07-06T00:35:00;22.20;91.80
4518;DHT22;2271;49.464;11.070;2022-07-06T00:37:25;22.20;92.00
4518;DHT22;2271;49.464;11.070;2022-07-06T00:39:51;22.10;92.00
4518;DHT22;2271;49.464;11.070;2022-07-06T00:42:17;22.20;92.10
4518;DHT22;2271;49.464;11.070;2022-07-06T00:44:42;22.10;91.90
4518;DHT22;2271;49.464;11.070;2022-07-06T00:47:08;22.10;92.20
4518;DHT22;2271;49.464;11.070;2022-07-06T00:49:34;22.10;92.30
4518;DHT22;2271;49.464;11.070;2022-07-06T00:52:19;22.00;92.40
4518;DHT22;2271;49.464;11.070;2022-07-06T00:54:45;22.10;92.50
4518;DHT22;2271;49.464;11.070;2022-07-06T00:57:11;22.00;92.40
4518;DHT22;2271;49.464;11.070;2022-07-06T00:59:37;22.00;92.80
4518;DHT22;2271;49.464;11.070;2022-07-06T01:02:03;22.00;92.80
4518;DHT22;2271;49.464;11.070;2022-07-06T01:04:29;22.00;93.10
4518;DHT22;2271;49.464;11.070;2022-07-06T01:06:56;22.00;93.20
4518;DHT22;2271;49.464;11.070;2022-07-06T01:09:22;21.90;93.00
4518;DHT22;2271;49.464;11.070;2022-07-06T01:11:48;21.90;93.20
4518;DHT22;2271;49.464;11.070;2022-07-06T01:14:14;21.90;93.10
4518;DHT22;2271;49.464;11.070;2022-07-06T01:16:40;21.90;93.30
4518;DHT22;2271;49.464;11.070;2022-07-06T01:19:06;21.70;93.30
4518;DHT22;2271;49.464;11.070;2022-07-06T01:21:32;21.70;93.50
4518;DHT22;2271;49.464;11.070;2022-07-06T01:23:57;21.70;93.50
4518;DHT22;2271;49.464;11.070;2022-07-06T01:26:23;21.70;93.90
4518;DHT22;2271;49.464;11.070;2022-07-06T01:28:50;21.60;93.90
4518;DHT22;2271;49.464;11.070;2022-07-06T01:31:23;21.60;94.10
4518;DHT22;2271;49.464;11.070;2022-07-06T01:33:50;21.60;94.10
4518;DHT22;2271;49.464;11.070;2022-07-06T01:36:16;21.60;94.30
4518;DHT22;2271;49.464;11.070;2022-07-06T01:38:49;21.60;94.60
4518;DHT22;2271;49.464;11.070;2022-07-06T01:41:16;21.60;94.40
4518;DHT22;2271;49.464;11.070;2022-07-06T01:43:42;21.60;94.60
4518;DHT22;2271;49.464;11.070;2022-07-06T01:46:07;21.60;94.70
4518;DHT22;2271;49.464;11.070;2022-07-06T01:48:33;21.60;94.60
4518;DHT22;2271;49.464;11.070;2022-07-06T01:50:59;21.50;94.60
4518;DHT22;2271;49.464;11.070;2022-07-06T01:53:25;21.40;94.70
4518;DHT22;2271;49.464;11.070;2022-07-06T01:55:50;21.40;95.10
4518;DHT22;2271;49.464;11.070;2022-07-06T01:58:16;21.40;95.20
4518;DHT22;2271;49.464;11.070;2022-07-06T02:00:42;21.40;95.00
4518;DHT22;2271;49.464;11.070;2022-07-06T02:03:07;21.50;95.20
4518;DHT22;2271;49.464;11.070;2022-07-06T02:05:33;21.40;95.20
4518;DHT22;2271;49.464;11.070;2022-07-06T02:07:59;21.40;95.40
4518;DHT22;2271;49.464;11.070;2022-07-06T02:10:24;21.40;95.40
4518;DHT22;2271;49.464;11.070;2022-07-06T02:12:50;21.40;95.40
4518;DHT22;2271;49.464;11.070;2022-07-06T02:15:16;21.40;95.40
4518;DHT22;2271;49.464;11.070;2022-07-06T02:17:41;21.40;95.40
4518;DHT22;2271;49.464;11.070;2022-07-06T02:20:08;21.30;95.60
4518;DHT22;2271;49.464;11.070;2022-07-06T02:22:33;21.30;95.70
4518;DHT22;2271;49.464;11.070;2022-07-06T02:24:59;21.30;95.90
4518;DHT22;2271;49.464;11.070;2022-07-06T02:27:25;21.20;95.80
4518;DHT22;2271;49.464;11.070;2022-07-06T02:29:50;21.10;95.60
4518;DHT22;2271;49.464;11.070;2022-07-06T02:32:16;21.00;96.00
4518;DHT22;2271;49.464;11.070;2022-07-06T02:34:42;21.10;96.00
4518;DHT22;2271;49.464;11.070;2022-07-06T02:37:07;21.10;96.20
4518;DHT22;2271;49.464;11.070;2022-07-06T02:39:33;21.10;96.50
4518;DHT22;2271;49.464;11.070;2022-07-06T02:41:58;21.20;96.40
4518;DHT22;2271;49.464;11.070;2022-07-06T02:44:24;21.20;96.30
4518;DHT22;2271;49.464;11.070;2022-07-06T02:46:50;21.20;96.40
4518;DHT22;2271;49.464;11.070;2022-07-06T02:49:15;21.20;96.40
4518;DHT22;2271;49.464;11.070;2022-07-06T02:51:41;21.20;96.60
4518;DHT22;2271;49.464;11.070;2022-07-06T02:54:06;21.10;96.60
4518;DHT22;2271;49.464;11.070;2022-07-06T02:56:32;21.10;96.80
4518;DHT22;2271;49.464;11.070;2022-07-06T02:58:58;21.10;96.70
4518;DHT22;2271;49.464;11.070;2022-07-06T03:01:23;21.20;96.90
4518;DHT22;2271;49.464;11.070;2022-07-06T03:03:49;21.20;96.80
4518;DHT22;2271;49.464;11.070;2022-07-06T03:06:15;21.20;96.80
4518;DHT22;2271;49.464;11.070;2022-07-06T03:08:40;21.20;96.90
4518;DHT22;2271;49.464;11.070;2022-07-06T03:11:06;21.20;96.80
4518;DHT22;2271;49.464;11.070;2022-07-06T03:13:31;21.10;96.90
4518;DHT22;2271;49.464;11.070;2022-07-06T03:15:57;21.10;96.90
4518;DHT22;2271;49.464;11.070;2022-07-06T03:18:23;21.10;96.90
4518;DHT22;2271;49.464;11.070;2022-07-06T03:20:49;21.00;97.00
4518;DHT22;2271;49.464;11.070;2022-07-06T03:23:14;21.00;97.20
4518;DHT22;2271;49.464;11.070;2022-07-06T03:25:40;21.00;97.00
4518;DHT22;2271;49.464;11.070;2022-07-06T03:28:06;21.00;97.10
4518;DHT22;2271;49.464;11.070;2022-07-06T03:30:31;20.90;97.30
4518;DHT22;2271;49.464;11.070;2022-07-06T03:32:57;20.90;97.60
4518;DHT22;2271;49.464;11.070;2022-07-06T03:35:22;20.90;97.50
4518;DHT22;2271;49.464;11.070;2022-07-06T03:37:48;20.80;97.60
4518;DHT22;2271;49.464;11.070;2022-07-06T03:40:14;20.80;97.90
4518;DHT22;2271;49.464;11.070;2022-07-06T03:42:40;20.90;98.10
4518;DHT22;2271;49.464;11.070;2022-07-06T03:45:06;20.90;98.10
4518;DHT22;2271;49.464;11.070;2022-07-06T03:47:32;21.00;99.10
4518;DHT22;2271;49.464;11.070;2022-07-06T03:49:58;21.20;99.00
4518;DHT22;2271;49.464;11.070;2022-07-06T03:52:23;21.50;98.40
4518;DHT22;2271;49.464;11.070;2022-07-06T03:54:49;21.70;97.90
4518;DHT22;2271;49.464;11.070;2022-07-06T03:57:14;21.70;97.70
4518;DHT22;2271;49.464;11.070;2022-07-06T03:59:40;21.70;97.50
4518;DHT22;2271;49.464;11.070;2022-07-06T04:02:06;21.70;97.50
4518;DHT22;2271;49.464;11.070;2022-07-06T04:04:33;21.80;97.50
4518;DHT22;2271;49.464;11.070;2022-07-06T04:06:59;21.70;97.10
4518;DHT22;2271;49.464;11.070;2022-07-06T04:09:25;21.60;97.20
4518;DHT22;2271;49.464;11.070;2022-07-06T04:11:51;21.50;97.50
4518;DHT22;2271;49.464;11.070;2022-07-06T04:14:17;21.30;97.50
4518;DHT22;2271;49.464;11.070;2022-07-06T04:16:43;21.30;97.80
4518;DHT22;2271;49.464;11.070;2022-07-06T04:19:08;21.20;97.80
4518;DHT22;2271;49.464;11.070;2022-07-06T04:21:34;21.20;97.80
4518;DHT22;2271;49.464;11.070;2022-07-06T04:24:00;21.20;97.90
4518;DHT22;2271;49.464;11.070;2022-07-06T04:26:25;21.20;97.90
4518;DHT22;2271;49.464;11.070;2022-07-06T04:28:51;21.30;98.00
4518;DHT22;2271;49.464;11.070;2022-07-06T04:31:17;21.30;98.00
4518;DHT22;2271;49.464;11.070;2022-07-06T04:33:42;21.30;98.00
4518;DHT22;2271;49.464;11.070;2022-07-06T04:36:09;21.30;97.90
4518;DHT22;2271;49.464;11.070;2022-07-06T04:38:35;21.30;97.70
4518;DHT22;2271;49.464;11.070;2022-07-06T04:41:01;21.40;97.90
4518;DHT22;2271;49.464;11.070;2022-07-06T04:43:27;21.30;97.70
4518;DHT22;2271;49.464;11.070;2022-07-06T04:45:52;21.30;98.00
4518;DHT22;2271;49.464;11.070;2022-07-06T04:48:18;21.30;98.10
4518;DHT22;2271;49.464;11.070;2022-07-06T04:50:44;21.30;98.20
4518;DHT22;2271;49.464;11.070;2022-07-06T04:53:09;21.30;98.10
4518;DHT22;2271;49.464;11.070;2022-07-06T04:55:35;21.30;98.10
4518;DHT22;2271;49.464;11.070;2022-07-06T04:58:01;21.20;98.00
4518;DHT22;2271;49.464;11.070;2022-07-06T05:00:27;21.20;97.90
4518;DHT22;2271;49.464;11.070;2022-07-06T05:02:52;21.20;98.10
4518;DHT22;2271;49.464;11.070;2022-07-06T05:05:18;21.20;98.30
4518;DHT22;2271;49.464;11.070;2022-07-06T05:07:44;21.20;98.50
4518;DHT22;2271;49.464;11.070;2022-07-06T05:10:10;21.20;98.40
4518;DHT22;2271;49.464;11.070;2022-07-06T05:12:37;21.20;98.50
4518;DHT22;2271;49.464;11.070;2022-07-06T05:15:04;21.20;98.20
4518;DHT22;2271;49.464;11.070;2022-07-06T05:17:30;21.20;98.20
4518;DHT22;2271;49.464;11.070;2022-07-06T05:19:55;21.20;98.40
4518;DHT22;2271;49.464;11.070;2022-07-06T05:22:21;21.20;98.30
4518;DHT22;2271;49.464;11.070;2022-07-06T05:24:46;21.20;98.20
4518;DHT22;2271;49.464;11.070;2022-07-06T05:27:12;21.20;98.50
4518;DHT22;2271;49.464;11.070;2022-07-06T05:29:38;21.20;98.60
4518;DHT22;2271;49.464;11.070;2022-07-06T05:32:03;21.20;98.60
4518;DHT22;2271;49.464;11.070;2022-07-06T05:34:29;21.20;98.60
4518;DHT22;2271;49.464;11.070;2022-07-06T05:36:55;21.20;98.70
4518;DHT22;2271;49.464;11.070;2022-07-06T05:39:21;21.30;98.60
4518;DHT22;2271;49.464;11.070;2022-07-06T05:41:48;21.40;98.60
4518;DHT22;2271;49.464;11.070;2022-07-06T05:44:14;21.50;98.40
4518;DHT22;2271;49.464;11.070;2022-07-06T05:46:39;21.60;98.60
4518;DHT22;2271;49.464;11.070;2022-07-06T05:49:05;21.60;98.60
4518;DHT22;2271;49.464;11.070;2022-07-06T05:51:49;21.70;98.40
4518;DHT22;2271;49.464;11.070;2022-07-06T05:54:15;21.80;98.30
4518;DHT22;2271;49.464;11.070;2022-07-06T05:56:41;21.90;98.10
4518;DHT22;2271;49.464;11.070;2022-07-06T05:59:07;22.10;98.10
4518;DHT22;2271;49.464;11.070;2022-07-06T06:01:32;22.30;97.70
4518;DHT22;2271;49.464;11.070;2022-07-06T06:03:58;22.50;97.40
4518;DHT22;2271;49.464;11.070;2022-07-06T06:06:25;22.70;97.20
4518;DHT22;2271;49.464;11.070;2022-07-06T06:08:51;22.80;96.90
4518;DHT22;2271;49.464;11.070;2022-07-06T06:11:17;22.90;96.70
4518;DHT22;2271;49.464;11.070;2022-07-06T06:13:42;22.80;96.50
4518;DHT22;2271;49.464;11.070;2022-07-06T06:16:08;22.90;96.40
4518;DHT22;2271;49.464;11.070;2022-07-06T06:18:34;23.10;96.20
4518;DHT22;2271;49.464;11.070;2022-07-06T06:21:00;23.10;96.00
4518;DHT22;2271;49.464;11.070;2022-07-06T06:23:26;23.30;96.20
4518;DHT22;2271;49.464;11.070;2022-07-06T06:25:51;23.40;96.10
4518;DHT22;2271;49.464;11.070;2022-07-06T06:28:17;23.40;96.00
4518;DHT22;2271;49.464;11.070;2022-07-06T06:30:43;23.40;96.00
4518;DHT22;2271;49.464;11.070;2022-07-06T06:33:18;23.40;95.90
4518;DHT22;2271;49.464;11.070;2022-07-06T06:35:49;23.60;95.60
4518;DHT22;2271;49.464;11.070;2022-07-06T06:38:17;23.70;95.40
4518;DHT22;2271;49.464;11.070;2022-07-06T06:40:42;23.90;95.40
4518;DHT22;2271;49.464;11.070;2022-07-06T06:43:09;24.00;95.00
4518;DHT22;2271;49.464;11.070;2022-07-06T06:45:35;24.00;95.00
4518;DHT22;2271;49.464;11.070;2022-07-06T06:48:00;24.10;94.80
4518;DHT22;2271;49.464;11.070;2022-07-06T06:50:27;24.20;94.70
4518;DHT22;2271;49.464;11.070;2022-07-06T06:52:52;24.40;94.50
4518;DHT22;2271;49.464;11.070;2022-07-06T06:55:18;24.60;93.90
4518;DHT22;2271;49.464;11.070;2022-07-06T06:57:44;24.70;94.00
4518;DHT22;2271;49.464;11.070;2022-07-06T07:00:10;24.80;93.70
4518;DHT22;2271;49.464;11.070;2022-07-06T07:02:36;24.90;92.50
4518;DHT22;2271;49.464;11.070;2022-07-06T07:05:03;24.70;93.10
4518;DHT22;2271;49.464;11.070;2022-07-06T07:07:29;24.70;93.40
4518;DHT22;2271;49.464;11.070;2022-07-06T07:09:54;24.80;93.10
4518;DHT22;2271;49.464;11.070;2022-07-06T07:12:20;24.60;93.60
4518;DHT22;2271;49.464;11.070;2022-07-06T07:14:45;24.60;93.40
4518;DHT22;2271;49.464;11.070;2022-07-06T07:17:12;24.70;93.70
4518;DHT22;2271;49.464;11.070;2022-07-06T07:19:38;24.80;93.50
4518;DHT22;2271;49.464;11.070;2022-07-06T07:22:04;24.80;93.40
4518;DHT22;2271;49.464;11.070;2022-07-06T07:24:30;24.70;93.20
4518;DHT22;2271;49.464;11.070;2022-07-06T07:26:56;24.70;92.90
4518;DHT22;2271;49.464;11.070;2022-07-06T07:29:21;24.60;92.50
4518;DHT22;2271;49.464;11.070;2022-07-06T07:31:47;24.80;92.90
4518;DHT22;2271;49.464;11.070;2022-07-06T07:34:13;25.00;92.90
4518;DHT22;2271;49.464;11.070;2022-07-06T07:36:38;25.10;92.50
4518;DHT22;2271;49.464;11.070;2022-07-06T07:39:04;24.90;91.60
4518;DHT22;2271;49.464;11.070;2022-07-06T07:41:30;24.80;92.50
4518;DHT22;2271;49.464;11.070;2022-07-06T07:43:56;24.90;92.50
4518;DHT22;2271;49.464;11.070;2022-07-06T07:46:22;25.10;91.50
4518;DHT22;2271;49.464;11.070;2022-07-06T07:48:47;25.10;92.10
4518;DHT22;2271;49.464;11.070;2022-07-06T07:51:13;25.30;92.00
4518;DHT22;2271;49.464;11.070;2022-07-06T07:53:39;25.50;91.70
4518;DHT22;2271;49.464;11.070;2022-07-06T07:56:05;25.70;91.20
4518;DHT22;2271;49.464;11.070;2022-07-06T07:58:31;26.00;91.00
4518;DHT22;2271;49.464;11.070;2022-07-06T08:00:57;26.10;88.60
4518;DHT22;2271;49.464;11.070;2022-07-06T08:03:22;26.20;90.00
4518;DHT22;2271;49.464;11.070;2022-07-06T08:05:48;26.40;89.90
4518;DHT22;2271;49.464;11.070;2022-07-06T08:08:15;26.50;89.80
4518;DHT22;2271;49.464;11.070;2022-07-06T08:10:41;26.60;88.40
4518;DHT22;2271;49.464;11.070;2022-07-06T08:13:06;26.60;88.90
4518;DHT22;2271;49.464;11.070;2022-07-06T08:15:36;26.60;88.00
4518;DHT22;2271;49.464;11.070;2022-07-06T08:18:02;26.70;88.20
4518;DHT22;2271;49.464;11.070;2022-07-06T08:20:28;26.80;86.90
4518;DHT22;2271;49.464;11.070;2022-07-06T08:22:53;26.60;86.10
4518;DHT22;2271;49.464;11.070;2022-07-06T08:25:19;26.70;87.70
4518;DHT22;2271;49.464;11.070;2022-07-06T08:27:45;26.80;86.30
4518;DHT22;2271;49.464;11.070;2022-07-06T08:30:11;27.00;85.90
4518;DHT22;2271;49.464;11.070;2022-07-06T08:32:39;27.20;84.70
4518;DHT22;2271;49.464;11.070;2022-07-06T08:35:05;27.20;84.90
4518;DHT22;2271;49.464;11.070;2022-07-06T08:37:31;26.70;82.10
4518;DHT22;2271;49.464;11.070;2022-07-06T08:39:56;25.60;83.20
4518;DHT22;2271;49.464;11.070;2022-07-06T08:42:23;25.60;85.70
4518;DHT22;2271;49.464;11.070;2022-07-06T08:44:52;25.10;86.20
4518;DHT22;2271;49.464;11.070;2022-07-06T08:47:18;25.40;88.50
4518;DHT22;2271;49.464;11.070;2022-07-06T08:49:45;25.90;86.80
4518;DHT22;2271;49.464;11.070;2022-07-06T08:52:11;26.30;85.20
4518;DHT22;2271;49.464;11.070;2022-07-06T08:54:38;26.50;84.80
4518;DHT22;2271;49.464;11.070;2022-07-06T08:57:04;26.70;86.20
4518;DHT22;2271;49.464;11.070;2022-07-06T08:59:30;27.00;85.70
4518;DHT22;2271;49.464;11.070;2022-07-06T09:01:56;27.20;84.60
4518;DHT22;2271;49.464;11.070;2022-07-06T09:04:25;27.30;83.90
4518;DHT22;2271;49.464;11.070;2022-07-06T09:06:51;27.40;84.70
4518;DHT22;2271;49.464;11.070;2022-07-06T09:09:23;27.10;83.90
4518;DHT22;2271;49.464;11.070;2022-07-06T09:11:49;27.30;84.70
4518;DHT22;2271;49.464;11.070;2022-07-06T09:14:15;27.50;82.20
4518;DHT22;2271;49.464;11.070;2022-07-06T09:16:41;27.30;82.20
4518;DHT22;2271;49.464;11.070;2022-07-06T09:19:16;27.20;83.10
4518;DHT22;2271;49.464;11.070;2022-07-06T09:21:41;27.30;82.90
4518;DHT22;2271;49.464;11.070;2022-07-06T09:24:10;27.50;84.20
4518;DHT22;2271;49.464;11.070;2022-07-06T09:26:36;27.10;81.60
4518;DHT22;2271;49.464;11.070;2022-07-06T09:29:02;27.00;83.50
4518;DHT22;2271;49.464;11.070;2022-07-06T09:31:28;27.30;83.90
4518;DHT22;2271;49.464;11.070;2022-07-06T09:36:42;27.00;84.90
4518;DHT22;2271;49.464;11.070;2022-07-06T09:41:47;27.20;83.90
4518;DHT22;2271;49.464;11.070;2022-07-06T09:44:13;27.20;84.30
4518;DHT22;2271;49.464;11.070;2022-07-06T09:46:45;27.00;82.70
4518;DHT22;2271;49.464;11.070;2022-07-06T09:49:11;26.70;83.20
4518;DHT22;2271;49.464;11.070;2022-07-06T09:51:38;26.70;84.30
4518;DHT22;2271;49.464;11.070;2022-07-06T09:54:06;27.10;83.10
4518;DHT22;2271;49.464;11.070;2022-07-06T09:56:40;27.30;82.40
4518;DHT22;2271;49.464;11.070;2022-07-06T09:59:09;27.30;81.70
4518;DHT22;2271;49.464;11.070;2022-07-06T10:01:37;27.40;82.80
4518;DHT22;2271;49.464;11.070;2022-07-06T10:04:03;27.50;82.70
4518;DHT22;2271;49.464;11.070;2022-07-06T10:06:29;27.40;81.40
4518;DHT22;2271;49.464;11.070;2022-07-06T10:08:55;27.60;81.60
4518;DHT22;2271;49.464;11.070;2022-07-06T10:11:23;27.30;79.80
4518;DHT22;2271;49.464;11.070;2022-07-06T10:13:50;26.60;81.90
4518;DHT22;2271;49.464;11.070;2022-07-06T10:16:21;26.40;83.40
4518;DHT22;2271;49.464;11.070;2022-07-06T10:18:48;26.30;83.60
4518;DHT22;2271;49.464;11.070;2022-07-06T10:21:17;26.40;84.40
4518;DHT22;2271;49.464;11.070;2022-07-06T10:23:43;26.50;82.70
4518;DHT22;2271;49.464;11.070;2022-07-06T10:26:09;26.80;83.40
4518;DHT22;2271;49.464;11.070;2022-07-06T10:28:36;26.90;82.40
4518;DHT22;2271;49.464;11.070;2022-07-06T10:31:02;27.00;81.30
4518;DHT22;2271;49.464;11.070;2022-07-06T10:33:29;26.80;81.50
4518;DHT22;2271;49.464;11.070;2022-07-06T10:35:56;26.90;82.20
4518;DHT22;2271;49.464;11.070;2022-07-06T10:38:33;26.90;82.50
4518;DHT22;2271;49.464;11.070;2022-07-06T10:41:07;26.70;82.40
4518;DHT22;2271;49.464;11.070;2022-07-06T10:43:44;26.80;82.60
4518;DHT22;2271;49.464;11.070;2022-07-06T10:46:18;27.10;83.30
4518;DHT22;2271;49.464;11.070;2022-07-06T10:48:47;27.30;81.90
4518;DHT22;2271;49.464;11.070;2022-07-06T10:51:24;27.50;80.80
4518;DHT22;2271;49.464;11.070;2022-07-06T10:53:57;27.50;80.00
4518;DHT22;2271;49.464;11.070;2022-07-06T10:56:38;27.00;81.90
4518;DHT22;2271;49.464;11.070;2022-07-06T10:59:10;27.20;81.60
4518;DHT22;2271;49.464;11.070;2022-07-06T11:01:37;27.30;80.70
4518;DHT22;2271;49.464;11.070;2022-07-06T11:06:32;27.70;79.80
4518;DHT22;2271;49.464;11.070;2022-07-06T11:14:17;26.50;80.60
4518;DHT22;2271;49.464;11.070;2022-07-06T11:19:19;26.40;82.70
4518;DHT22;2271;49.464;11.070;2022-07-06T11:24:32;27.00;82.10
4518;DHT22;2271;49.464;11.070;2022-07-06T11:26:59;27.10;81.40
4518;DHT22;2271;49.464;11.070;2022-07-06T11:29:27;27.00;81.80
4518;DHT22;2271;49.464;11.070;2022-07-06T11:31:58;26.90;83.00
4518;DHT22;2271;49.464;11.070;2022-07-06T11:34:30;26.80;82.50
4518;DHT22;2271;49.464;11.070;2022-07-06T11:37:01;26.40;82.30
4518;DHT22;2271;49.464;11.070;2022-07-06T11:39:34;26.10;81.30
4518;DHT22;2271;49.464;11.070;2022-07-06T11:42:02;26.00;83.20
4518;DHT22;2271;49.464;11.070;2022-07-06T11:44:29;26.10;81.80
4518;DHT22;2271;49.464;11.070;2022-07-06T11:46:55;26.20;81.60
4518;DHT22;2271;49.464;11.070;2022-07-06T11:49:23;26.20;82.10
4518;DHT22;2271;49.464;11.070;2022-07-06T11:51:48;26.30;82.90
4518;DHT22;2271;49.464;11.070;2022-07-06T11:54:16;26.30;80.20
4518;DHT22;2271;49.464;11.070;2022-07-06T11:56:56;26.20;78.40
4518;DHT22;2271;49.464;11.070;2022-07-06T11:59:28;26.10;79.10
4518;DHT22;2271;49.464;11.070;2022-07-06T12:02:05;26.00;81.20
4518;DHT22;2271;49.464;11.070;2022-07-06T12:04:33;26.30;79.40
4518;DHT22;2271;49.464;11.070;2022-07-06T12:07:04;26.40;77.40
4518;DHT22;2271;49.464;11.070;2022-07-06T12:09:32;26.60;78.30
4518;DHT22;2271;49.464;11.070;2022-07-06T12:11:57;26.80;77.50
4518;DHT22;2271;49.464;11.070;2022-07-06T12:14:23;26.90;78.80
4518;DHT22;2271;49.464;11.070;2022-07-06T12:16:49;27.20;77.90
4518;DHT22;2271;49.464;11.070;2022-07-06T12:19:16;27.40;76.60
4518;DHT22;2271;49.464;11.070;2022-07-06T12:21:50;27.50;76.60
4518;DHT22;2271;49.464;11.070;2022-07-06T12:24:20;27.40;76.00
4518;DHT22;2271;49.464;11.070;2022-07-06T12:26:47;27.20;77.80
4518;DHT22;2271;49.464;11.070;2022-07-06T12:29:13;26.80;78.10
4518;DHT22;2271;49.464;11.070;2022-07-06T12:31:44;26.70;79.00
4518;DHT22;2271;49.464;11.070;2022-07-06T12:39:14;27.30;78.30
4518;DHT22;2271;49.464;11.070;2022-07-06T12:42:00;27.30;77.10
4518;DHT22;2271;49.464;11.070;2022-07-06T12:44:27;27.30;76.90
4518;DHT22;2271;49.464;11.070;2022-07-06T12:47:07;27.40;76.20
4518;DHT22;2271;49.464;11.070;2022-07-06T12:49:34;27.40;77.90
4518;DHT22;2271;49.464;11.070;2022-07-06T12:52:18;27.50;77.30
4518;DHT22;2271;49.464;11.070;2022-07-06T12:54:49;27.60;77.70
4518;DHT22;2271;49.464;11.070;2022-07-06T12:57:19;27.40;77.60
4518;DHT22;2271;49.464;11.070;2022-07-06T12:59:55;27.40;77.50
4518;DHT22;2271;49.464;11.070;2022-07-06T13:02:25;27.40;76.40
4518;DHT22;2271;49.464;11.070;2022-07-06T13:05:18;27.50;75.90
4518;DHT22;2271;49.464;11.070;2022-07-06T13:07:47;27.60;75.80
4518;DHT22;2271;49.464;11.070;2022-07-06T13:10:14;27.70;74.70
4518;DHT22;2271;49.464;11.070;2022-07-06T13:12:40;27.40;73.50
4518;DHT22;2271;49.464;11.070;2022-07-06T13:15:08;27.50;74.80
4518;DHT22;2271;49.464;11.070;2022-07-06T13:17:34;27.50;75.00
4518;DHT22;2271;49.464;11.070;2022-07-06T13:20:01;27.10;75.50
4518;DHT22;2271;49.464;11.070;2022-07-06T13:22:27;26.90;76.60
4518;DHT22;2271;49.464;11.070;2022-07-06T13:24:53;26.80;77.20
4518;DHT22;2271;49.464;11.070;2022-07-06T13:27:18;26.70;75.80
4518;DHT22;2271;49.464;11.070;2022-07-06T13:29:44;26.70;76.20
4518;DHT22;2271;49.464;11.070;2022-07-06T13:32:10;26.60;75.90
4518;DHT22;2271;49.464;11.070;2022-07-06T13:37:19;26.60;76.40
4518;DHT22;2271;49.464;11.070;2022-07-06T13:39:45;26.60;77.80
4518;DHT22;2271;49.464;11.070;2022-07-06T13:42:11;26.60;76.80
4518;DHT22;2271;49.464;11.070;2022-07-06T13:44:36;26.70;77.90
4518;DHT22;2271;49.464;11.070;2022-07-06T13:47:03;26.90;77.80
4518;DHT22;2271;49.464;11.070;2022-07-06T13:49:29;26.80;75.60
4518;DHT22;2271;49.464;11.070;2022-07-06T13:51:54;26.80;76.20
4518;DHT22;2271;49.464;11.070;2022-07-06T13:54:27;26.80;76.10
4518;DHT22;2271;49.464;11.070;2022-07-06T13:56:53;27.00;76.10
4518;DHT22;2271;49.464;11.070;2022-07-06T13:59:18;27.00;76.30
4518;DHT22;2271;49.464;11.070;2022-07-06T14:01:44;26.80;77.40
4518;DHT22;2271;49.464;11.070;2022-07-06T14:04:10;26.80;77.30
4518;DHT22;2271;49.464;11.070;2022-07-06T14:06:36;26.90;76.70
4518;DHT22;2271;49.464;11.070;2022-07-06T14:09:02;26.90;76.40
4518;DHT22;2271;49.464;11.070;2022-07-06T14:11:27;26.80;76.10
4518;DHT22;2271;49.464;11.070;2022-07-06T14:13:53;26.80;75.50
4518;DHT22;2271;49.464;11.070;2022-07-06T14:16:19;26.90;75.00
4518;DHT22;2271;49.464;11.070;2022-07-06T14:18:44;26.80;74.60
4518;DHT22;2271;49.464;11.070;2022-07-06T14:21:10;26.80;74.70
4518;DHT22;2271;49.464;11.070;2022-07-06T14:23:36;26.60;77.20
4518;DHT22;2271;49.464;11.070;2022-07-06T14:26:02;26.50;78.50
4518;DHT22;2271;49.464;11.070;2022-07-06T14:28:27;26.40;75.70
4518;DHT22;2271;49.464;11.070;2022-07-06T14:30:53;26.20;78.40
4518;DHT22;2271;49.464;11.070;2022-07-06T14:33:19;26.10;77.30
4518;DHT22;2271;49.464;11.070;2022-07-06T14:35:49;26.00;78.00
4518;DHT22;2271;49.464;11.070;2022-07-06T14:38:18;25.70;75.20
4518;DHT22;2271;49.464;11.070;2022-07-06T14:40:45;25.70;76.40
4518;DHT22;2271;49.464;11.070;2022-07-06T14:43:11;25.80;76.50
4518;DHT22;2271;49.464;11.070;2022-07-06T14:45:37;26.00;75.90
4518;DHT22;2271;49.464;11.070;2022-07-06T14:48:03;26.00;74.40
4518;DHT22;2271;49.464;11.070;2022-07-06T14:50:28;26.00;76.50
4518;DHT22;2271;49.464;11.070;2022-07-06T14:52:55;26.00;75.10
4518;DHT22;2271;49.464;11.070;2022-07-06T14:55:21;26.10;75.50
4518;DHT22;2271;49.464;11.070;2022-07-06T14:57:47;26.10;75.00
4518;DHT22;2271;49.464;11.070;2022-07-06T15:00:13;26.00;74.40
4518;DHT22;2271;49.464;11.070;2022-07-06T15:02:40;25.90;75.10
4518;DHT22;2271;49.464;11.070;2022-07-06T15:05:07;25.80;74.90
4518;DHT22;2271;49.464;11.070;2022-07-06T15:07:33;25.80;77.20
4518;DHT22;2271;49.464;11.070;2022-07-06T15:09:59;25.70;76.60
4518;DHT22;2271;49.464;11.070;2022-07-06T15:12:24;25.80;76.60
4518;DHT22;2271;49.464;11.070;2022-07-06T15:14:50;25.80;74.70
4518;DHT22;2271;49.464;11.070;2022-07-06T15:17:15;25.80;76.20
4518;DHT22;2271;49.464;11.070;2022-07-06T15:19:43;25.90;75.10
4518;DHT22;2271;49.464;11.070;2022-07-06T15:22:12;25.90;76.40
4518;DHT22;2271;49.464;11.070;2022-07-06T15:24:38;26.00;74.60
4518;DHT22;2271;49.464;11.070;2022-07-06T15:27:04;26.00;75.10
4518;DHT22;2271;49.464;11.070;2022-07-06T15:29:30;26.10;74.70
4518;DHT22;2271;49.464;11.070;2022-07-06T15:31:56;26.10;74.90
4518;DHT22;2271;49.464;11.070;2022-07-06T15:34:22;26.20;73.90
4518;DHT22;2271;49.464;11.070;2022-07-06T15:36:48;26.10;74.10
4518;DHT22;2271;49.464;11.070;2022-07-06T15:39:14;26.20;72.60
4518;DHT22;2271;49.464;11.070;2022-07-06T15:41:40;26.10;72.00
4518;DHT22;2271;49.464;11.070;2022-07-06T15:44:06;26.00;71.90
4518;DHT22;2271;49.464;11.070;2022-07-06T15:46:32;25.90;72.40
4518;DHT22;2271;49.464;11.070;2022-07-06T15:48:57;25.90;73.30
4518;DHT22;2271;49.464;11.070;2022-07-06T15:51:23;26.00;72.70
4518;DHT22;2271;49.464;11.070;2022-07-06T15:53:49;25.90;72.60
4518;DHT22;2271;49.464;11.070;2022-07-06T15:56:15;25.90;72.00
4518;DHT22;2271;49.464;11.070;2022-07-06T15:58:41;25.90;71.30
4518;DHT22;2271;49.464;11.070;2022-07-06T16:01:07;25.90;71.40
4518;DHT22;2271;49.464;11.070;2022-07-06T16:03:32;25.70;71.60
4518;DHT22;2271;49.464;11.070;2022-07-06T16:05:59;25.80;71.80
4518;DHT22;2271;49.464;11.070;2022-07-06T16:08:25;25.90;72.90